Wednesday, November 22, 2017, 4:08 AM EST
Back to Local

KGFL, Floyd Bennett Memorial Airport

Location: Queensbury, NY, United States Lat: 43.333
Local Time: 4:08 AM EST ( 9:08 GMT) Lon: -73.617
Time Zone: US/Eastern Elev: 328 ft

Show me the last for .
Show Coded

Time T Td Feel RH Dir Speed Gust Alt SLP Vis Weather Sky Remarks
2017-11-22 03:53 29 26 - 88 - Calm - 29.92 29.94 10 CLR None
2017-11-22 02:53 28 25 - 88 - Calm - 29.92 29.94 10 CLR None
2017-11-22 01:53 30 25 - 81 - Calm - 29.92 29.93 10 CLR None
2017-11-22 00:53 30 26 25 84 240° 5 - 29.92 29.94 10 CLR 6-hr Min Temp (1am): 27.0°F
6-hr Max Temp (1am): 37.0°F
2017-11-21 23:53 30 27 25 88 250° 5 - 29.94 29.96 10 CLR 24-hr Min Temp (12am): 21.9°F
24-hr Max Temp (12am): 54.0°F
2017-11-21 22:53 29 25 25 84 230° 3 - 29.93 29.95 10 CLR None
2017-11-21 21:53 29 25 24 84 230° 5 - 29.93 29.95 10 CLR None
2017-11-21 20:53 30 26 25 84 230° 5 - 29.93 29.95 10 CLR None
2017-11-21 19:53 32 25 29 74 230° 3 - 29.92 29.95 10 CLR None
2017-11-21 18:53 37 27 32 66 200° 6 - 29.90 29.93 10 CLR 6-hr Min Temp (7pm): 34.0°F
6-hr Max Temp (7pm): 54.0°F
2017-11-21 17:53 37 26 - 64 - Calm - 29.90 29.92 10 CLR None
2017-11-21 16:53 48 26 46 42 210° 5 - 29.89 29.91 10 CLR None
2017-11-21 15:53 50 25 47 37 200° 7 - 29.87 29.89 10 CLR None
2017-11-21 14:53 53 25 - 33 200° 12 - 29.85 29.87 10 CLR None
2017-11-21 13:53 53 25 - 33 200° 17 24 29.86 29.88 10 CLR None
2017-11-21 12:53 52 26 - 36 200° 15 23 29.87 29.88 10 CLR 6-hr Min Temp (1pm): 21.9°F
6-hr Max Temp (1pm): 52.0°F
2017-11-21 11:53 50 26 43 39 210° 20 24 29.90 29.91 10 CLR None
2017-11-21 10:53 44 26 36 48 210° 9 18 29.94 29.96 10 CLR None
2017-11-21 09:53 41 26 34 54 200° 12 - 29.97 29.99 10 CLR None
2017-11-21 08:53 37 27 30 66 190° 9 - 29.99 30.01 10 CLR None
2017-11-21 07:53 25 23 - 92 - Calm - 30.00 30.02 9 CLR None
2017-11-21 06:53 22 21 - 96 - Calm - 30.01 30.04 8 CLR 6-hr Min Temp (7am): 21.9°F
6-hr Max Temp (7am): 30.9°F
2017-11-21 05:53 22 20 - 91 - Calm - 30.02 30.04 10 CLR None
2017-11-21 04:53 24 22 - 91 - Calm - 30.01 30.04 10 CLR None

Support USWX by starting your Amazon purchase here.